Time;durP1;ratioP1;P1;durP2;ratioP2;P2;SDS_P1;SDS_P2;PMS_P1;PMS_P2;Temp;Humidity;BMP_temperature;BMP_pressure;BME280_temperature;BME280_humidity;BME280_pressure;Samples;Min_cycle;Max_cycle;Signal;HPM_P1;HPM_P2
2023/02/18 00:01:53;;;;;;;54.42;49.63;;;;;;;9.15;93.71;98869.38;4982274;28;20062;-74
2023/02/18 00:04:19;;;;;;;52.85;48.30;;;;;;;9.18;93.69;98882.38;4953835;28;20044;-75
2023/02/18 00:06:44;;;;;;;53.60;49.45;;;;;;;9.10;93.45;98876.47;4969473;28;20046;-73
2023/02/18 00:09:10;;;;;;;53.88;49.50;;;;;;;9.17;92.90;98888.00;4969352;28;20046;-73
2023/02/18 00:11:36;;;;;;;49.70;46.08;;;;;;;9.12;93.60;98885.97;4953803;29;20046;-73
2023/02/18 00:14:04;;;;;;;51.65;47.15;;;;;;;9.16;93.88;98891.69;4969743;28;20050;-73
2023/02/18 00:16:30;;;;;;;51.15;46.65;;;;;;;9.18;93.36;98895.00;4946227;29;20032;-74
2023/02/18 00:18:57;;;;;;;51.75;47.28;;;;;;;9.11;93.81;98888.84;4947704;29;20486;-74
2023/02/18 00:21:23;;;;;;;50.55;45.92;;;;;;;9.09;94.37;98878.31;4969565;28;20390;-73
2023/02/18 00:23:48;;;;;;;51.47;46.67;;;;;;;9.15;94.02;98890.88;4968834;28;20038;-74
2023/02/18 00:26:16;;;;;;;48.95;44.63;;;;;;;9.10;93.81;98884.53;4953782;29;20035;-76
2023/02/18 00:28:41;;;;;;;49.47;44.78;;;;;;;9.11;93.43;98889.66;4968868;28;20063;-77
2023/02/18 00:31:19;;;;;;;44.97;40.92;;;;;;;9.07;93.91;98895.69;4966178;28;20044;-76
2023/02/18 00:33:44;;;;;;;44.05;40.42;;;;;;;9.06;94.46;98881.44;4966740;28;20075;-77
2023/02/18 00:36:14;;;;;;;42.92;39.42;;;;;;;9.16;93.67;98880.97;4960708;28;20078;-77
2023/02/18 00:38:46;;;;;;;42.88;39.63;;;;;;;9.11;93.70;98878.94;4946543;29;20103;-77
2023/02/18 00:41:12;;;;;;;40.65;37.25;;;;;;;9.15;94.11;98880.13;4960826;28;20042;-77
2023/02/18 00:43:37;;;;;;;41.00;37.17;;;;;;;9.11;93.84;98881.63;4956759;28;20417;-74
2023/02/18 00:46:03;;;;;;;41.28;37.83;;;;;;;9.14;94.40;98873.13;4969044;28;20086;-74
2023/02/18 00:48:28;;;;;;;40.78;36.70;;;;;;;9.12;94.51;98880.59;4952501;28;20126;-73
2023/02/18 00:50:53;;;;;;;41.20;37.67;;;;;;;9.11;94.77;98878.94;4969171;28;20071;-72
2023/02/18 00:53:21;;;;;;;42.75;37.65;;;;;;;9.16;94.00;98879.09;4955947;28;20027;-73
2023/02/18 00:55:47;;;;;;;40.38;36.58;;;;;;;9.18;93.60;98874.31;4969052;28;20563;-74
2023/02/18 00:58:12;;;;;;;39.78;35.70;;;;;;;9.27;93.24;98878.38;4968332;28;20026;-74
2023/02/18 01:00:38;;;;;;;42.55;38.15;;;;;;;9.23;92.79;98882.56;4952858;28;20042;-74
2023/02/18 01:03:06;;;;;;;42.70;37.70;;;;;;;9.14;93.04;98873.13;4953066;28;20087;-75
2023/02/18 01:05:32;;;;;;;43.63;39.28;;;;;;;9.23;93.03;98877.19;4953031;28;20070;-73
2023/02/18 01:07:57;;;;;;;44.03;38.53;;;;;;;9.32;92.41;98881.25;4968061;28;20055;-73
2023/02/18 01:10:22;;;;;;;42.00;37.85;;;;;;;9.37;92.80;98877.88;4949669;28;20063;-75
2023/02/18 01:12:48;;;;;;;42.67;38.53;;;;;;;9.30;93.84;98888.72;4965864;28;20409;-74
2023/02/18 01:15:15;;;;;;;41.38;37.47;;;;;;;9.30;93.56;98882.50;4952580;28;20083;-73
2023/02/18 01:17:40;;;;;;;42.92;38.13;;;;;;;9.23;93.25;98885.25;4936130;28;20090;-74
2023/02/18 01:20:06;;;;;;;43.40;39.22;;;;;;;9.22;93.50;98886.28;4968817;28;20505;-74
2023/02/18 01:22:33;;;;;;;42.72;39.22;;;;;;;9.37;93.16;98889.47;4933253;28;20397;-74
2023/02/18 01:24:59;;;;;;;43.60;39.58;;;;;;;9.34;92.69;98889.91;4943548;28;20031;-74
2023/02/18 01:27:24;;;;;;;46.70;42.78;;;;;;;9.32;92.73;98892.00;4948453;28;20031;-76
2023/02/18 01:29:50;;;;;;;45.70;42.10;;;;;;;9.49;92.71;98898.47;4959564;28;20121;-74
2023/02/18 01:32:15;;;;;;;49.90;44.33;;;;;;;9.38;92.78;98893.78;4965357;28;20118;-76
2023/02/18 01:34:41;;;;;;;48.80;44.15;;;;;;;9.28;92.81;98885.41;4959012;28;20039;-73
2023/02/18 01:37:07;;;;;;;53.58;48.08;;;;;;;9.34;92.81;98884.53;4967752;28;20138;-76
2023/02/18 01:39:34;;;;;;;54.97;48.17;;;;;;;9.22;92.27;98880.91;4958654;28;20032;-77
2023/02/18 01:41:59;;;;;;;55.60;49.90;;;;;;;9.23;92.04;98874.50;4946261;29;20115;-74
2023/02/18 01:44:27;;;;;;;55.60;49.53;;;;;;;9.25;92.23;98880.47;4959226;28;20047;-75
2023/02/18 01:46:53;;;;;;;55.63;49.63;;;;;;;9.27;93.18;98882.94;4951890;28;20027;-76
2023/02/18 01:49:23;;;;;;;60.83;49.95;;;;;;;9.23;93.37;98871.81;4958451;28;20044;-76
2023/02/18 01:51:53;;;;;;;54.47;49.05;;;;;;;9.12;92.61;98869.84;4966160;28;20043;-74
2023/02/18 01:54:40;;;;;;;52.67;47.88;;;;;;;9.11;93.80;98857.44;4968540;28;20564;-77
2023/02/18 01:57:09;;;;;;;54.13;49.17;;;;;;;9.22;93.76;98872.84;4955661;28;20031;-77
2023/02/18 01:59:40;;;;;;;51.38;46.97;;;;;;;9.10;93.49;98858.50;4938033;28;20081;-76
2023/02/18 02:02:10;;;;;;;49.17;45.38;;;;;;;9.11;93.88;98860.13;4987768;28;20030;-77
2023/02/18 02:04:35;;;;;;;49.28;45.08;;;;;;;9.16;93.88;98857.59;4971479;28;20035;-77
2023/02/18 02:07:01;;;;;;;47.47;43.90;;;;;;;9.22;93.56;98855.91;4958181;28;20032;-77
2023/02/18 02:09:28;;;;;;;46.33;42.65;;;;;;;9.22;93.28;98854.03;4961912;28;20020;-74
2023/02/18 02:12:01;;;;;;;49.03;45.33;;;;;;;9.19;93.16;98851.81;4958564;28;20513;-76
2023/02/18 02:14:32;;;;;;;47.08;43.40;;;;;;;9.23;93.39;98854.84;4955302;28;20129;-75
2023/02/18 02:17:13;;;;;;;48.97;44.97;;;;;;;9.12;93.78;98847.50;4956775;28;20039;-75
2023/02/18 02:20:16;;;;;;;49.85;45.35;;;;;;;9.19;93.46;98849.09;4939620;29;20043;-76
2023/02/18 02:23:05;;;;;;;47.15;42.75;;;;;;;9.15;93.89;98847.88;4940462;28;20669;-76
2023/02/18 02:25:39;;;;;;;44.95;41.20;;;;;;;9.19;93.01;98843.75;4939362;29;20044;-76
2023/02/18 02:28:19;;;;;;;45.10;41.17;;;;;;;9.18;93.36;98847.44;4958634;28;20513;-76
2023/02/18 02:31:06;;;;;;;43.60;39.97;;;;;;;9.25;93.20;98847.38;4961900;28;20032;-76
2023/02/18 02:33:39;;;;;;;44.47;41.17;;;;;;;9.20;93.85;98831.94;4962656;28;20500;-75
2023/02/18 02:36:20;;;;;;;46.00;42.17;;;;;;;9.14;93.96;98840.88;4960097;28;20512;-75
2023/02/18 02:38:58;;;;;;;46.00;42.70;;;;;;;9.22;93.18;98831.72;4937172;29;20397;-75
2023/02/18 02:41:46;;;;;;;45.65;42.33;;;;;;;9.19;93.26;98832.16;4956410;28;20032;-75
2023/02/18 02:44:19;;;;;;;43.33;40.05;;;;;;;9.07;93.71;98826.69;4957184;28;20027;-76
2023/02/18 02:46:53;;;;;;;42.47;39.60;;;;;;;9.22;93.21;98837.91;4969773;28;20035;-76
2023/02/18 02:49:39;;;;;;;42.75;39.15;;;;;;;9.18;93.36;98828.63;4956841;29;20127;-76
2023/02/18 02:52:11;;;;;;;43.58;40.22;;;;;;;9.13;93.20;98833.84;4943953;29;20122;-76
2023/02/18 02:54:37;;;;;;;43.03;39.72;;;;;;;9.17;93.48;98832.34;4958292;28;20036;-76
2023/02/18 02:57:23;;;;;;;45.58;41.88;;;;;;;9.13;93.59;98823.09;4963012;28;20023;-76
2023/02/18 03:00:06;;;;;;;44.53;40.22;;;;;;;9.07;93.05;98824.00;4972030;28;20415;-76
2023/02/18 03:03:13;;;;;;;42.38;39.28;;;;;;;9.17;93.33;98824.28;4978117;28;20027;-75
2023/02/18 03:05:47;;;;;;;43.17;38.70;;;;;;;9.08;93.98;98817.56;4970737;28;20111;-75
2023/02/18 03:08:30;;;;;;;44.47;39.92;;;;;;;9.13;93.48;98815.03;4970331;28;20035;-75
2023/02/18 03:11:10;;;;;;;42.50;38.35;;;;;;;9.16;92.84;98819.97;4954680;28;20039;-76
2023/02/18 03:13:58;;;;;;;45.47;39.08;;;;;;;9.17;92.79;98829.66;4954910;28;20081;-76
2023/02/18 03:16:44;;;;;;;50.80;39.60;;;;;;;9.19;92.62;98814.19;4970910;28;20390;-75
2023/02/18 03:19:11;;;;;;;44.72;38.17;;;;;;;9.19;92.74;98824.94;4970394;28;20097;-76
2023/02/18 03:21:44;;;;;;;41.53;37.70;;;;;;;9.33;92.18;98823.78;4961429;28;20094;-75
2023/02/18 03:24:15;;;;;;;58.05;40.08;;;;;;;9.30;92.69;98824.19;4948228;29;20042;-75
2023/02/18 03:26:46;;;;;;;41.25;37.38;;;;;;;9.40;92.38;98821.84;4962195;28;20367;-76
2023/02/18 03:29:13;;;;;;;38.95;35.95;;;;;;;9.46;91.61;98822.81;4957469;28;20027;-75
2023/02/18 03:31:39;;;;;;;39.63;36.33;;;;;;;9.39;92.19;98825.56;4954542;28;20050;-76
2023/02/18 03:34:08;;;;;;;42.88;38.53;;;;;;;9.26;91.97;98820.31;4970535;28;20519;-75
2023/02/18 03:36:35;;;;;;;40.10;36.78;;;;;;;9.29;92.77;98827.13;4951381;28;20127;-75
2023/02/18 03:39:07;;;;;;;41.63;37.83;;;;;;;9.31;92.35;98819.66;4969291;28;20035;-76
2023/02/18 03:41:32;;;;;;;39.00;35.67;;;;;;;9.17;92.81;98805.47;4941463;28;20036;-76
2023/02/18 03:44:00;;;;;;;41.30;38.90;;;;;;;9.19;93.36;98808.81;4941693;29;20086;-76
2023/02/18 03:46:28;;;;;;;39.65;37.25;;;;;;;9.27;92.71;98819.25;4970043;28;20032;-75
2023/02/18 03:48:54;;;;;;;37.70;35.00;;;;;;;9.24;92.69;98819.69;4946704;29;20422;-75
2023/02/18 03:51:20;;;;;;;38.03;35.42;;;;;;;9.26;93.12;98819.50;4963879;28;20038;-76
2023/02/18 03:53:46;;;;;;;38.17;34.78;;;;;;;9.31;92.39;98819.66;4957945;28;20031;-76
2023/02/18 03:56:11;;;;;;;38.03;34.63;;;;;;;9.20;92.46;98817.66;4957206;28;20034;-76
2023/02/18 03:58:37;;;;;;;40.95;37.80;;;;;;;9.13;92.87;98825.78;4951772;28;20471;-76
2023/02/18 04:01:03;;;;;;;40.67;37.17;;;;;;;9.14;92.90;98823.94;4983036;28;20089;-75
2023/02/18 04:03:28;;;;;;;40.67;37.47;;;;;;;9.22;93.09;98821.78;4938074;29;20389;-76
2023/02/18 04:05:54;;;;;;;39.03;35.80;;;;;;;9.13;93.25;98819.59;4956974;28;20040;-76
2023/02/18 04:08:19;;;;;;;37.58;34.58;;;;;;;9.18;93.17;98828.63;4953373;28;20114;-76
2023/02/18 04:10:44;;;;;;;35.75;33.25;;;;;;;9.11;93.16;98827.03;4957027;28;20131;-75
2023/02/18 04:13:10;;;;;;;35.20;32.97;;;;;;;9.15;93.52;98818.31;4948456;28;20430;-75
2023/02/18 04:15:35;;;;;;;34.97;32.75;;;;;;;9.14;93.67;98819.38;4963389;28;20062;-76
2023/02/18 04:18:01;;;;;;;35.10;32.80;;;;;;;9.20;93.49;98829.25;4956348;28;20098;-75
2023/02/18 04:20:27;;;;;;;34.67;32.50;;;;;;;9.25;93.07;98832.09;4941035;29;20042;-75
2023/02/18 04:22:52;;;;;;;36.28;34.08;;;;;;;9.22;92.64;98837.91;4963307;28;20024;-75
2023/02/18 04:25:18;;;;;;;37.22;35.17;;;;;;;9.25;92.73;98826.72;4963297;28;20064;-75
2023/02/18 04:27:43;;;;;;;38.17;35.92;;;;;;;9.26;92.32;98839.13;4965896;28;20028;-75
2023/02/18 04:30:09;;;;;;;37.55;35.25;;;;;;;9.23;92.20;98831.50;4963360;28;20047;-75
2023/02/18 04:32:35;;;;;;;36.92;34.97;;;;;;;9.27;92.01;98832.69;4953465;28;20019;-75
2023/02/18 04:35:00;;;;;;;38.33;36.03;;;;;;;9.20;92.25;98829.25;4969412;28;20046;-75
2023/02/18 04:37:25;;;;;;;45.45;42.08;;;;;;;9.17;92.13;98845.78;4968828;28;20107;-75
2023/02/18 04:39:51;;;;;;;38.00;36.00;;;;;;;9.18;91.91;98843.94;4969339;28;20035;-75
2023/02/18 04:42:16;;;;;;;38.15;36.15;;;;;;;9.18;92.27;98836.72;4956453;28;20038;-75
2023/02/18 04:44:41;;;;;;;38.65;36.40;;;;;;;9.19;92.41;98842.91;4969321;28;20034;-75
2023/02/18 04:47:07;;;;;;;39.47;37.38;;;;;;;9.26;92.05;98839.13;4952549;29;20031;-75
2023/02/18 04:49:33;;;;;;;39.97;37.97;;;;;;;9.30;91.13;98845.69;4968993;28;20035;-74
2023/02/18 04:51:58;;;;;;;40.13;38.15;;;;;;;9.31;90.41;98847.31;4953181;29;20027;-75
2023/02/18 04:54:23;;;;;;;41.67;39.67;;;;;;;9.33;90.14;98850.66;4969017;28;20039;-75
2023/02/18 04:56:49;;;;;;;42.00;40.00;;;;;;;9.24;90.13;98841.19;4963574;28;20109;-75
2023/02/18 04:59:14;;;;;;;42.42;40.45;;;;;;;9.35;89.26;98843.19;4960962;28;20114;-74
2023/02/18 05:01:40;;;;;;;44.47;42.47;;;;;;;9.29;89.47;98838.66;4982084;28;20061;-74
2023/02/18 05:04:05;;;;;;;41.53;39.63;;;;;;;9.31;89.46;98833.88;4965868;28;20095;-74
2023/02/18 05:06:31;;;;;;;41.47;39.58;;;;;;;9.29;89.32;98837.88;4965438;28;20430;-75
2023/02/18 05:08:56;;;;;;;40.80;38.90;;;;;;;9.22;89.38;98835.22;4944378;28;20039;-75
2023/02/18 05:11:22;;;;;;;42.45;40.55;;;;;;;9.10;89.84;98820.88;4949800;28;20070;-75
2023/02/18 05:13:47;;;;;;;43.00;41.10;;;;;;;9.14;90.06;98835.50;4961828;28;20366;-76
2023/02/18 05:16:12;;;;;;;43.03;41.13;;;;;;;9.17;89.64;98835.03;4941034;28;20106;-75
2023/02/18 05:18:38;;;;;;;43.10;41.20;;;;;;;9.24;88.59;98825.06;4956881;28;20055;-76
2023/02/18 05:21:04;;;;;;;42.75;40.95;;;;;;;9.29;88.11;98819.84;4962415;28;20106;-76
2023/02/18 05:23:29;;;;;;;39.63;37.92;;;;;;;9.33;87.82;98813.00;4960548;28;20139;-76
2023/02/18 05:25:54;;;;;;;39.80;37.92;;;;;;;9.19;88.27;98806.13;4955767;28;20492;-76
2023/02/18 05:28:20;;;;;;;42.90;41.10;;;;;;;9.13;88.93;98815.03;4956792;28;20051;-75
2023/02/18 05:30:45;;;;;;;42.28;40.45;;;;;;;9.16;89.79;98817.28;4962429;28;20111;-75
2023/02/18 05:33:11;;;;;;;44.38;42.47;;;;;;;9.14;89.98;98808.63;4945640;29;20557;-77
2023/02/18 05:35:36;;;;;;;43.72;41.83;;;;;;;9.07;90.75;98802.50;4961567;28;20055;-77
2023/02/18 05:38:01;;;;;;;44.67;42.63;;;;;;;8.99;90.92;98794.69;4951950;28;20031;-76
2023/02/18 05:40:27;;;;;;;44.95;42.92;;;;;;;9.05;91.19;98809.97;4948188;28;20031;-75
2023/02/18 05:42:52;;;;;;;43.78;41.85;;;;;;;8.97;91.46;98789.56;4944193;29;20405;-75
2023/02/18 05:45:18;;;;;;;46.03;43.88;;;;;;;9.04;91.72;98776.06;4956196;28;20031;-75
2023/02/18 05:47:43;;;;;;;42.58;40.58;;;;;;;9.03;91.11;98796.72;4957463;28;20118;-76
2023/02/18 05:50:09;;;;;;;43.05;40.67;;;;;;;9.08;91.87;98788.00;4953239;28;20041;-76
2023/02/18 05:52:34;;;;;;;42.30;40.20;;;;;;;9.12;91.02;98775.78;4958267;28;20039;-77
2023/02/18 05:54:59;;;;;;;42.92;40.83;;;;;;;9.10;91.73;98779.75;4962197;28;20031;-76
2023/02/18 05:57:25;;;;;;;41.70;39.70;;;;;;;9.01;91.35;98771.13;4943643;29;20114;-76
2023/02/18 05:59:50;;;;;;;41.75;39.63;;;;;;;9.07;91.47;98775.63;4970722;28;20022;-76
2023/02/18 06:02:16;;;;;;;41.70;39.40;;;;;;;9.05;90.80;98777.72;4977686;28;20039;-76
2023/02/18 06:04:41;;;;;;;41.50;39.30;;;;;;;9.01;91.61;98776.50;4965001;28;20038;-76
2023/02/18 06:07:07;;;;;;;45.13;42.83;;;;;;;8.95;91.44;98777.38;4967636;28;20490;-76
2023/02/18 06:09:32;;;;;;;46.95;44.50;;;;;;;8.88;92.14;98765.88;4950098;28;20549;-76
2023/02/18 06:11:57;;;;;;;45.35;42.83;;;;;;;8.95;92.15;98766.63;4958624;28;20397;-77
2023/02/18 06:14:23;;;;;;;44.45;41.78;;;;;;;8.80;92.13;98752.69;4954989;28;20031;-76
2023/02/18 06:16:48;;;;;;;44.92;42.10;;;;;;;8.88;92.40;98763.19;4956324;28;20576;-76
2023/02/18 06:19:14;;;;;;;47.80;45.00;;;;;;;8.85;92.99;98766.31;4959811;28;20465;-76
2023/02/18 06:21:39;;;;;;;46.70;43.70;;;;;;;8.85;92.14;98769.00;4958406;28;20098;-76
2023/02/18 06:24:05;;;;;;;44.08;41.33;;;;;;;8.92;92.67;98772.44;4970801;28;20046;-75
2023/02/18 06:26:30;;;;;;;42.50;39.80;;;;;;;8.93;92.92;98763.34;4962811;28;20028;-76
2023/02/18 06:28:56;;;;;;;41.38;38.88;;;;;;;8.92;93.13;98756.31;4964604;28;20082;-77
2023/02/18 06:31:21;;;;;;;40.05;37.50;;;;;;;8.94;93.12;98754.22;4959786;28;20041;-75
2023/02/18 06:33:46;;;;;;;39.53;36.72;;;;;;;8.87;93.70;98748.09;4956994;28;20528;-77
2023/02/18 06:36:12;;;;;;;37.38;35.17;;;;;;;8.86;93.81;98746.47;4969401;28;20035;-76
2023/02/18 06:38:42;;;;;;;36.05;33.67;;;;;;;8.84;94.23;98753.94;4966581;28;20058;-76
2023/02/18 06:41:08;;;;;;;36.53;33.80;;;;;;;8.89;94.55;98756.78;4944895;29;20047;-77
2023/02/18 06:43:34;;;;;;;36.88;34.55;;;;;;;9.01;94.04;98753.16;4969371;28;20027;-76
2023/02/18 06:46:00;;;;;;;36.05;33.63;;;;;;;8.96;93.68;98747.59;4966048;28;20039;-76
2023/02/18 06:48:26;;;;;;;35.15;32.67;;;;;;;8.95;93.63;98734.41;4967264;28;20441;-77
2023/02/18 06:50:51;;;;;;;36.35;33.25;;;;;;;8.92;93.30;98734.84;4955174;28;20445;-77
2023/02/18 06:53:16;;;;;;;36.00;32.80;;;;;;;8.91;93.64;98727.84;4971265;28;20122;-77
2023/02/18 06:55:42;;;;;;;34.83;31.90;;;;;;;8.92;94.11;98734.84;4956272;28;20043;-76
2023/02/18 06:58:10;;;;;;;31.73;29.63;;;;;;;9.01;93.98;98731.66;4953408;28;20026;-76
2023/02/18 07:00:35;;;;;;;37.05;34.28;;;;;;;8.98;94.41;98728.59;4980894;28;20031;-76
2023/02/18 07:03:01;;;;;;;41.17;37.72;;;;;;;8.97;94.00;98735.00;4959549;28;20429;-77
2023/02/18 07:05:26;;;;;;;35.55;32.85;;;;;;;9.00;94.22;98730.03;4995656;23;20038;-72
2023/02/18 07:07:52;;;;;;;33.47;31.08;;;;;;;9.04;94.06;98727.69;4957269;28;20027;-72
2023/02/18 07:10:17;;;;;;;63.22;54.38;;;;;;;9.05;93.90;98726.69;4975190;28;20031;-72
2023/02/18 07:12:43;;;;;;;36.28;33.20;;;;;;;9.03;94.83;98732.25;4990585;28;20101;-72
2023/02/18 07:15:08;;;;;;;43.75;39.85;;;;;;;9.03;94.88;98726.06;4990513;28;20042;-72
2023/02/18 07:17:34;;;;;;;36.50;33.65;;;;;;;9.00;94.23;98721.13;4973418;28;20109;-72
2023/02/18 07:19:59;;;;;;;29.52;27.83;;;;;;;9.03;94.32;98718.03;4975480;28;20098;-72
2023/02/18 07:22:25;;;;;;;30.42;28.33;;;;;;;9.02;93.97;98724.41;4975373;28;20050;-72
2023/02/18 07:24:52;;;;;;;30.33;28.33;;;;;;;9.04;94.12;98722.31;4973897;28;20031;-72
2023/02/18 07:27:19;;;;;;;29.17;27.58;;;;;;;9.09;94.24;98719.81;4973373;28;20027;-72
2023/02/18 07:29:44;;;;;;;30.83;29.23;;;;;;;9.04;93.94;98722.31;4990032;28;20562;-72
2023/02/18 07:32:14;;;;;;;31.73;30.02;;;;;;;9.08;93.29;98723.53;4989849;28;20109;-72
2023/02/18 07:34:39;;;;;;;30.23;28.35;;;;;;;9.00;94.16;98721.13;4973868;28;20045;-72
2023/02/18 07:37:11;;;;;;;33.88;31.98;;;;;;;9.06;94.32;98725.63;4974846;28;20027;-72
2023/02/18 07:39:41;;;;;;;31.73;29.73;;;;;;;9.08;93.82;98733.47;4973920;28;20400;-71
2023/02/18 07:42:07;;;;;;;34.00;31.80;;;;;;;9.12;93.06;98731.97;4985858;28;20066;-71
2023/02/18 07:44:33;;;;;;;35.58;33.28;;;;;;;9.15;93.40;98721.59;4948829;28;20465;-72
2023/02/18 07:46:58;;;;;;;38.20;35.70;;;;;;;9.14;93.30;98722.66;4952456;28;20103;-72
2023/02/18 07:49:24;;;;;;;40.25;37.78;;;;;;;9.11;92.45;98723.09;4942355;29;20019;-73
2023/02/18 07:51:49;;;;;;;42.10;39.35;;;;;;;9.13;92.30;98721.00;4951962;29;20043;-73
2023/02/18 07:54:15;;;;;;;43.45;40.55;;;;;;;9.18;91.92;98705.03;4960511;28;20026;-73
2023/02/18 07:56:42;;;;;;;45.17;42.25;;;;;;;9.20;92.21;98707.47;4964476;28;20027;-72
2023/02/18 07:59:08;;;;;;;46.72;43.42;;;;;;;9.24;90.11;98706.81;4970675;28;20031;-72
2023/02/18 08:01:33;;;;;;;49.53;46.10;;;;;;;9.30;90.88;98695.19;4953535;29;20382;-73
2023/02/18 08:03:59;;;;;;;52.70;49.38;;;;;;;9.35;90.34;98695.34;4950727;28;20031;-72
2023/02/18 08:06:29;;;;;;;51.38;47.97;;;;;;;9.45;88.74;98692.94;4952938;28;20039;-72
2023/02/18 08:08:54;;;;;;;52.00;48.70;;;;;;;9.36;89.33;98705.03;4953150;29;20089;-73
2023/02/18 08:11:19;;;;;;;51.28;47.90;;;;;;;9.48;88.29;98687.13;4953911;28;20473;-73
2023/02/18 08:13:46;;;;;;;50.63;47.42;;;;;;;9.48;87.72;98692.50;4954970;28;20054;-73
2023/02/18 08:16:11;;;;;;;51.83;48.63;;;;;;;9.53;87.20;98683.75;4957431;28;20018;-71
2023/02/18 08:18:37;;;;;;;48.10;44.88;;;;;;;9.59;86.69;98694.41;4953727;28;20039;-73
2023/02/18 08:21:02;;;;;;;46.60;43.50;;;;;;;9.68;86.94;98690.38;4957135;28;20113;-71
2023/02/18 08:23:28;;;;;;;40.88;38.05;;;;;;;9.61;86.08;98686.94;4957913;28;20051;-73
2023/02/18 08:25:53;;;;;;;37.53;35.13;;;;;;;9.79;85.39;98687.97;4986070;28;20147;-72
2023/02/18 08:28:21;;;;;;;38.58;35.95;;;;;;;9.79;85.96;98701.41;4983378;28;20041;-72
2023/02/18 08:30:48;;;;;;;37.35;34.85;;;;;;;9.78;85.71;98689.03;4991156;28;20030;-73
2023/02/18 08:33:14;;;;;;;31.83;29.63;;;;;;;9.83;84.62;98687.28;4975573;28;20089;-72
2023/02/18 08:35:39;;;;;;;35.70;33.30;;;;;;;9.88;85.58;98681.22;4991344;28;20030;-73
2023/02/18 08:38:05;;;;;;;28.85;26.75;;;;;;;9.89;84.16;98670.25;4974603;28;20037;-73
2023/02/18 08:40:30;;;;;;;30.15;28.02;;;;;;;9.80;84.67;98662.72;4986882;28;20030;-73
2023/02/18 08:42:56;;;;;;;22.50;20.70;;;;;;;9.86;83.24;98661.81;4991751;28;20117;-72
2023/02/18 08:45:21;;;;;;;21.40;19.58;;;;;;;9.90;82.38;98668.34;4991465;28;20113;-73
2023/02/18 08:47:46;;;;;;;18.30;16.65;;;;;;;9.93;81.50;98667.91;4991032;28;20038;-73
2023/02/18 08:50:12;;;;;;;19.73;17.92;;;;;;;9.88;82.44;98663.22;4975381;28;20093;-73
2023/02/18 08:52:38;;;;;;;21.83;20.02;;;;;;;9.91;81.85;98675.41;4975420;28;20049;-73
2023/02/18 08:55:04;;;;;;;15.82;14.38;;;;;;;10.05;80.09;98677.69;4991599;28;20072;-74
2023/02/18 08:57:29;;;;;;;18.25;16.65;;;;;;;9.97;82.24;98679.84;4991337;28;20617;-73
2023/02/18 08:59:55;;;;;;;17.70;16.00;;;;;;;9.90;81.89;98676.44;4975873;28;20031;-73
2023/02/18 09:02:21;;;;;;;16.45;14.93;;;;;;;9.91;81.51;98670.84;4995279;28;20041;-74
2023/02/18 09:04:46;;;;;;;16.73;15.25;;;;;;;9.97;81.09;98686.06;4973763;28;20018;-73
2023/02/18 09:07:12;;;;;;;17.35;15.80;;;;;;;9.96;81.89;98672.84;4955451;28;20042;-73
2023/02/18 09:09:37;;;;;;;17.08;15.57;;;;;;;10.02;80.96;98688.06;4978081;28;20022;-73
2023/02/18 09:12:03;;;;;;;16.33;14.82;;;;;;;10.00;80.69;98676.72;4984701;28;20038;-73
2023/02/18 09:14:28;;;;;;;16.70;15.20;;;;;;;9.98;81.37;98668.06;4973954;28;20035;-73
2023/02/18 09:16:56;;;;;;;18.27;16.58;;;;;;;9.93;81.21;98682.19;4978583;28;20057;-73
2023/02/18 09:19:21;;;;;;;16.98;15.48;;;;;;;9.98;81.47;98676.13;4984722;28;20022;-73
2023/02/18 09:21:46;;;;;;;18.27;16.65;;;;;;;10.12;81.48;98683.00;4958980;28;20407;-72
2023/02/18 09:24:12;;;;;;;17.52;15.93;;;;;;;10.13;81.22;98673.84;4978173;28;20464;-72
2023/02/18 09:26:38;;;;;;;18.02;16.48;;;;;;;10.21;81.02;98682.44;4982056;28;20081;-73
2023/02/18 09:29:03;;;;;;;17.13;15.63;;;;;;;10.20;81.08;98675.41;4959022;28;20539;-72
2023/02/18 09:31:29;;;;;;;17.90;16.27;;;;;;;10.18;80.92;98660.53;4992495;28;20121;-73
2023/02/18 09:33:57;;;;;;;19.35;17.52;;;;;;;10.35;79.76;98662.34;4992425;28;20102;-72
2023/02/18 09:36:23;;;;;;;16.38;14.98;;;;;;;10.37;80.11;98662.09;4974819;28;20038;-73
2023/02/18 09:38:48;;;;;;;17.02;15.57;;;;;;;10.45;80.16;98672.53;4990377;28;20030;-72
2023/02/18 09:41:33;;;;;;;15.15;13.75;;;;;;;10.41;79.68;98665.97;4990969;28;20092;-73
2023/02/18 09:44:08;;;;;;;15.57;14.10;;;;;;;10.48;78.87;98661.28;4991032;28;20041;-71
2023/02/18 09:46:38;;;;;;;14.88;13.48;;;;;;;10.51;78.68;98668.91;4990092;28;20484;-73
2023/02/18 09:49:11;;;;;;;14.93;13.52;;;;;;;10.50;77.42;98664.59;4971177;28;20046;-72
2023/02/18 09:51:37;;;;;;;13.75;12.45;;;;;;;10.47;77.84;98653.44;4984671;28;20539;-76
2023/02/18 09:54:03;;;;;;;14.18;12.77;;;;;;;10.42;78.09;98646.06;4980411;28;20034;-72
2023/02/18 09:56:31;;;;;;;13.93;12.52;;;;;;;10.45;78.35;98645.63;4978026;28;20113;-72
2023/02/18 09:58:57;;;;;;;13.88;12.57;;;;;;;10.40;78.84;98653.56;4987764;28;20035;-72
2023/02/18 10:01:32;;;;;;;13.65;12.35;;;;;;;10.42;78.33;98640.69;4962224;28;20053;-72
2023/02/18 10:04:01;;;;;;;14.95;12.65;;;;;;;10.46;78.60;98633.78;4978792;28;20034;-73
2023/02/18 10:06:30;;;;;;;13.95;12.57;;;;;;;10.42;78.88;98629.91;4994097;28;20069;-73
2023/02/18 10:09:02;;;;;;;13.85;12.55;;;;;;;10.62;78.96;98625.00;4993951;28;20034;-72
2023/02/18 10:11:41;;;;;;;14.48;12.98;;;;;;;10.57;78.25;98621.38;4978495;28;20408;-71
2023/02/18 10:14:11;;;;;;;13.07;11.82;;;;;;;10.54;78.31;98616.47;4978416;28;20030;-73
2023/02/18 10:16:37;;;;;;;13.15;11.85;;;;;;;10.53;78.30;98604.84;4995769;28;20084;-72
2023/02/18 10:19:28;;;;;;;25.00;17.48;;;;;;;10.56;77.47;98620.56;4993997;28;20539;-72
2023/02/18 10:21:53;;;;;;;13.75;12.35;;;;;;;10.58;78.14;98617.63;4994659;28;20406;-72
2023/02/18 10:24:29;;;;;;;12.80;11.65;;;;;;;10.56;77.87;98615.19;4978290;28;20033;-72
2023/02/18 10:26:55;;;;;;;12.77;11.55;;;;;;;10.46;78.94;98604.16;4977466;28;20034;-72
2023/02/18 10:29:22;;;;;;;13.60;12.27;;;;;;;10.47;78.07;98610.38;4978191;28;20038;-73
2023/02/18 10:32:11;;;;;;;14.18;12.40;;;;;;;10.45;78.99;98605.22;4994273;28;20070;-73
2023/02/18 10:34:46;;;;;;;13.23;12.02;;;;;;;10.42;78.73;98608.38;4994105;28;20026;-72
2023/02/18 10:37:43;;;;;;;12.63;11.43;;;;;;;10.50;78.09;98626.06;4990922;28;20061;-73
2023/02/18 10:40:22;;;;;;;12.95;11.60;;;;;;;10.47;77.44;98610.38;4976498;28;20042;-73
2023/02/18 10:42:56;;;;;;;12.93;11.70;;;;;;;10.51;77.80;98609.66;4994283;28;20037;-72
2023/02/18 10:45:32;;;;;;;12.60;11.40;;;;;;;10.52;76.52;98597.84;4977839;28;20049;-72
2023/02/18 10:48:38;;;;;;;13.55;11.70;;;;;;;10.51;76.93;98596.19;4993591;28;20177;-73
2023/02/18 10:51:13;;;;;;;13.43;11.88;;;;;;;10.42;78.67;98613.75;4977484;28;20506;-73
2023/02/18 10:53:42;;;;;;;12.82;11.32;;;;;;;10.49;76.43;98609.09;4977339;28;20805;-73
2023/02/18 10:56:07;;;;;;;11.52;10.38;;;;;;;10.48;76.96;98612.03;4995022;28;20113;-73
2023/02/18 10:58:53;;;;;;;12.23;10.95;;;;;;;10.40;76.90;98622.09;4962493;28;20437;-73
2023/02/18 11:01:20;;;;;;;11.32;10.32;;;;;;;10.41;75.37;98612.09;4978113;28;20070;-73
2023/02/18 11:03:51;;;;;;;12.23;10.88;;;;;;;10.51;75.07;98606.97;4993802;28;20034;-73
2023/02/18 11:06:32;;;;;;;11.05;10.02;;;;;;;10.51;75.77;98601.59;4993843;28;20030;-73
2023/02/18 11:08:58;;;;;;;29.25;26.08;;;;;;;10.52;74.91;98605.94;4993177;28;20077;-73
2023/02/18 11:11:29;;;;;;;13.32;10.80;;;;;;;10.52;74.74;98616.72;4977369;28;20495;-72
2023/02/18 11:13:57;;;;;;;10.48;9.48;;;;;;;10.54;74.58;98613.75;4977472;28;20038;-73
2023/02/18 11:16:41;;;;;;;16.58;14.60;;;;;;;10.48;73.34;98603.94;4951747;28;20511;-72
2023/02/18 11:19:32;;;;;;;16.05;14.23;;;;;;;10.51;73.50;98590.81;4993230;28;20038;-73
2023/02/18 11:22:28;;;;;;;10.00;8.82;;;;;;;10.44;71.87;98600.88;4993451;28;20034;-73
2023/02/18 11:24:59;;;;;;;9.95;8.65;;;;;;;10.54;69.82;98589.53;4959635;28;20054;-72
2023/02/18 11:27:30;;;;;;;10.15;8.77;;;;;;;10.50;71.51;98583.81;4988805;28;20085;-73
2023/02/18 11:30:04;;;;;;;8.88;8.00;;;;;;;10.46;71.68;98581.78;4986316;28;20125;-73
2023/02/18 11:32:33;;;;;;;9.35;8.45;;;;;;;10.51;70.27;98580.03;4993362;28;20117;-73